sensor_id;sensor_type;location;lat;lon;timestamp;P1;durP1;ratioP1;P2;durP2;ratioP2
51594;SDS011;37677;53.254;6.594;2023-08-06T00:01:27;8.65;;;7.75;;
51594;SDS011;37677;53.254;6.594;2023-08-06T00:03:58;12.38;;;8.05;;
51594;SDS011;37677;53.254;6.594;2023-08-06T00:06:26;8.48;;;7.65;;
51594;SDS011;37677;53.254;6.594;2023-08-06T00:08:55;10.18;;;7.53;;
51594;SDS011;37677;53.254;6.594;2023-08-06T00:11:23;8.00;;;7.20;;
51594;SDS011;37677;53.254;6.594;2023-08-06T00:14:09;8.48;;;7.68;;
51594;SDS011;37677;53.254;6.594;2023-08-06T00:16:35;8.40;;;7.60;;
51594;SDS011;37677;53.254;6.594;2023-08-06T00:19:03;8.38;;;7.45;;
51594;SDS011;37677;53.254;6.594;2023-08-06T00:21:32;8.75;;;7.88;;
51594;SDS011;37677;53.254;6.594;2023-08-06T00:23:58;8.68;;;7.45;;
51594;SDS011;37677;53.254;6.594;2023-08-06T00:26:25;11.40;;;7.55;;
51594;SDS011;37677;53.254;6.594;2023-08-06T00:28:51;9.85;;;7.90;;
51594;SDS011;37677;53.254;6.594;2023-08-06T00:31:17;9.38;;;8.48;;
51594;SDS011;37677;53.254;6.594;2023-08-06T00:33:45;8.43;;;6.90;;
51594;SDS011;37677;53.254;6.594;2023-08-06T00:36:14;10.52;;;8.73;;
51594;SDS011;37677;53.254;6.594;2023-08-06T00:38:42;12.07;;;7.90;;
51594;SDS011;37677;53.254;6.594;2023-08-06T00:41:11;12.73;;;9.50;;
51594;SDS011;37677;53.254;6.594;2023-08-06T00:43:39;8.63;;;7.45;;
51594;SDS011;37677;53.254;6.594;2023-08-06T00:46:05;8.65;;;7.85;;
51594;SDS011;37677;53.254;6.594;2023-08-06T00:48:32;8.45;;;7.30;;
51594;SDS011;37677;53.254;6.594;2023-08-06T00:50:58;9.10;;;7.60;;
51594;SDS011;37677;53.254;6.594;2023-08-06T00:53:25;10.80;;;7.47;;
51594;SDS011;37677;53.254;6.594;2023-08-06T00:55:51;12.27;;;8.82;;
51594;SDS011;37677;53.254;6.594;2023-08-06T00:58:17;8.95;;;7.60;;
51594;SDS011;37677;53.254;6.594;2023-08-06T01:00:48;14.00;;;8.77;;
51594;SDS011;37677;53.254;6.594;2023-08-06T01:03:17;9.45;;;7.85;;
51594;SDS011;37677;53.254;6.594;2023-08-06T01:05:43;11.35;;;8.35;;
51594;SDS011;37677;53.254;6.594;2023-08-06T01:10:51;9.32;;;8.43;;
51594;SDS011;37677;53.254;6.594;2023-08-06T01:13:32;10.25;;;8.50;;
51594;SDS011;37677;53.254;6.594;2023-08-06T01:15:59;8.43;;;7.53;;
51594;SDS011;37677;53.254;6.594;2023-08-06T01:18:26;10.48;;;9.48;;
51594;SDS011;37677;53.254;6.594;2023-08-06T01:20:52;9.98;;;9.02;;
51594;SDS011;37677;53.254;6.594;2023-08-06T01:23:21;10.25;;;8.73;;
51594;SDS011;37677;53.254;6.594;2023-08-06T01:25:56;11.30;;;9.18;;
51594;SDS011;37677;53.254;6.594;2023-08-06T01:31:10;10.77;;;9.32;;
51594;SDS011;37677;53.254;6.594;2023-08-06T01:33:44;13.35;;;10.98;;
51594;SDS011;37677;53.254;6.594;2023-08-06T01:36:14;10.70;;;8.38;;
51594;SDS011;37677;53.254;6.594;2023-08-06T01:38:43;9.82;;;8.82;;
51594;SDS011;37677;53.254;6.594;2023-08-06T01:41:10;11.65;;;9.70;;
51594;SDS011;37677;53.254;6.594;2023-08-06T01:43:39;11.48;;;8.93;;
51594;SDS011;37677;53.254;6.594;2023-08-06T01:46:08;10.95;;;9.82;;
51594;SDS011;37677;53.254;6.594;2023-08-06T01:48:34;13.18;;;11.25;;
51594;SDS011;37677;53.254;6.594;2023-08-06T01:51:03;13.18;;;10.43;;
51594;SDS011;37677;53.254;6.594;2023-08-06T01:53:32;11.93;;;10.65;;
51594;SDS011;37677;53.254;6.594;2023-08-06T01:55:59;13.43;;;11.60;;
51594;SDS011;37677;53.254;6.594;2023-08-06T01:58:31;12.90;;;10.98;;
51594;SDS011;37677;53.254;6.594;2023-08-06T02:01:04;12.77;;;11.10;;
51594;SDS011;37677;53.254;6.594;2023-08-06T02:03:30;12.15;;;9.70;;
51594;SDS011;37677;53.254;6.594;2023-08-06T02:05:57;10.52;;;9.52;;
51594;SDS011;37677;53.254;6.594;2023-08-06T02:08:23;13.13;;;11.75;;
51594;SDS011;37677;53.254;6.594;2023-08-06T02:10:55;12.02;;;10.60;;
51594;SDS011;37677;53.254;6.594;2023-08-06T02:13:23;13.82;;;12.25;;
51594;SDS011;37677;53.254;6.594;2023-08-06T02:15:50;12.88;;;11.68;;
51594;SDS011;37677;53.254;6.594;2023-08-06T02:18:16;10.60;;;9.50;;
51594;SDS011;37677;53.254;6.594;2023-08-06T02:20:42;13.95;;;12.25;;
51594;SDS011;37677;53.254;6.594;2023-08-06T02:23:08;12.30;;;10.40;;
51594;SDS011;37677;53.254;6.594;2023-08-06T02:25:35;12.27;;;11.18;;
51594;SDS011;37677;53.254;6.594;2023-08-06T02:28:06;13.20;;;11.80;;
51594;SDS011;37677;53.254;6.594;2023-08-06T02:30:33;14.07;;;12.32;;
51594;SDS011;37677;53.254;6.594;2023-08-06T02:33:00;13.57;;;12.13;;
51594;SDS011;37677;53.254;6.594;2023-08-06T02:35:26;15.10;;;13.50;;
51594;SDS011;37677;53.254;6.594;2023-08-06T02:37:52;14.20;;;11.57;;
51594;SDS011;37677;53.254;6.594;2023-08-06T02:40:18;13.77;;;11.75;;
51594;SDS011;37677;53.254;6.594;2023-08-06T02:42:44;13.13;;;11.50;;
51594;SDS011;37677;53.254;6.594;2023-08-06T02:45:15;13.00;;;11.77;;
51594;SDS011;37677;53.254;6.594;2023-08-06T02:47:57;13.15;;;11.70;;
51594;SDS011;37677;53.254;6.594;2023-08-06T02:50:25;13.68;;;12.27;;
51594;SDS011;37677;53.254;6.594;2023-08-06T02:52:54;15.60;;;13.68;;
51594;SDS011;37677;53.254;6.594;2023-08-06T02:55:23;13.02;;;11.75;;
51594;SDS011;37677;53.254;6.594;2023-08-06T02:58:03;13.88;;;11.82;;
51594;SDS011;37677;53.254;6.594;2023-08-06T03:00:29;14.07;;;12.60;;
51594;SDS011;37677;53.254;6.594;2023-08-06T03:02:56;15.90;;;14.23;;
51594;SDS011;37677;53.254;6.594;2023-08-06T03:05:22;11.63;;;10.50;;
51594;SDS011;37677;53.254;6.594;2023-08-06T03:07:48;13.88;;;12.48;;
51594;SDS011;37677;53.254;6.594;2023-08-06T03:10:18;12.93;;;11.68;;
51594;SDS011;37677;53.254;6.594;2023-08-06T03:12:45;21.00;;;13.70;;
51594;SDS011;37677;53.254;6.594;2023-08-06T03:15:11;15.02;;;13.52;;
51594;SDS011;37677;53.254;6.594;2023-08-06T03:17:37;14.82;;;12.95;;
51594;SDS011;37677;53.254;6.594;2023-08-06T03:20:06;14.52;;;13.07;;
51594;SDS011;37677;53.254;6.594;2023-08-06T03:22:32;15.98;;;14.32;;
51594;SDS011;37677;53.254;6.594;2023-08-06T03:25:03;16.90;;;12.75;;
51594;SDS011;37677;53.254;6.594;2023-08-06T03:28:03;12.38;;;11.00;;
51594;SDS011;37677;53.254;6.594;2023-08-06T03:30:32;14.73;;;12.63;;
51594;SDS011;37677;53.254;6.594;2023-08-06T03:33:04;16.05;;;14.43;;
51594;SDS011;37677;53.254;6.594;2023-08-06T03:35:33;15.95;;;14.32;;
51594;SDS011;37677;53.254;6.594;2023-08-06T03:37:59;13.13;;;11.02;;
51594;SDS011;37677;53.254;6.594;2023-08-06T03:40:25;17.13;;;13.10;;
51594;SDS011;37677;53.254;6.594;2023-08-06T03:42:55;13.43;;;11.68;;
51594;SDS011;37677;53.254;6.594;2023-08-06T03:45:23;11.10;;;10.05;;
51594;SDS011;37677;53.254;6.594;2023-08-06T03:47:57;11.60;;;10.52;;
51594;SDS011;37677;53.254;6.594;2023-08-06T03:50:23;10.95;;;10.00;;
51594;SDS011;37677;53.254;6.594;2023-08-06T03:52:51;11.38;;;10.20;;
51594;SDS011;37677;53.254;6.594;2023-08-06T03:55:21;11.38;;;10.23;;
51594;SDS011;37677;53.254;6.594;2023-08-06T03:58:02;13.88;;;12.50;;
51594;SDS011;37677;53.254;6.594;2023-08-06T04:00:30;18.05;;;13.43;;
51594;SDS011;37677;53.254;6.594;2023-08-06T04:03:02;13.75;;;12.38;;
51594;SDS011;37677;53.254;6.594;2023-08-06T04:05:33;10.20;;;9.20;;
51594;SDS011;37677;53.254;6.594;2023-08-06T04:07:59;11.82;;;10.77;;
51594;SDS011;37677;53.254;6.594;2023-08-06T04:10:26;11.98;;;10.35;;
51594;SDS011;37677;53.254;6.594;2023-08-06T04:12:52;13.02;;;11.82;;
51594;SDS011;37677;53.254;6.594;2023-08-06T04:15:20;16.27;;;12.40;;
51594;SDS011;37677;53.254;6.594;2023-08-06T04:17:46;11.65;;;10.45;;
51594;SDS011;37677;53.254;6.594;2023-08-06T04:20:32;11.68;;;10.10;;
51594;SDS011;37677;53.254;6.594;2023-08-06T04:23:06;12.02;;;10.93;;
51594;SDS011;37677;53.254;6.594;2023-08-06T04:25:34;11.40;;;10.20;;
51594;SDS011;37677;53.254;6.594;2023-08-06T04:28:00;12.13;;;10.70;;
51594;SDS011;37677;53.254;6.594;2023-08-06T04:30:26;13.05;;;11.30;;
51594;SDS011;37677;53.254;6.594;2023-08-06T04:32:58;11.32;;;10.05;;
51594;SDS011;37677;53.254;6.594;2023-08-06T04:35:27;14.95;;;9.63;;
51594;SDS011;37677;53.254;6.594;2023-08-06T04:37:53;10.88;;;8.63;;
51594;SDS011;37677;53.254;6.594;2023-08-06T04:40:19;11.45;;;10.35;;
51594;SDS011;37677;53.254;6.594;2023-08-06T04:42:45;13.25;;;11.18;;
51594;SDS011;37677;53.254;6.594;2023-08-06T04:45:11;11.60;;;10.40;;
51594;SDS011;37677;53.254;6.594;2023-08-06T04:47:40;11.32;;;9.85;;
51594;SDS011;37677;53.254;6.594;2023-08-06T04:50:17;9.30;;;8.23;;
51594;SDS011;37677;53.254;6.594;2023-08-06T04:52:51;13.05;;;10.50;;
51594;SDS011;37677;53.254;6.594;2023-08-06T04:55:19;10.60;;;9.40;;
51594;SDS011;37677;53.254;6.594;2023-08-06T04:57:48;10.73;;;9.60;;
51594;SDS011;37677;53.254;6.594;2023-08-06T05:00:23;11.50;;;10.30;;
51594;SDS011;37677;53.254;6.594;2023-08-06T05:02:49;11.30;;;10.20;;
51594;SDS011;37677;53.254;6.594;2023-08-06T05:05:15;11.68;;;10.50;;
51594;SDS011;37677;53.254;6.594;2023-08-06T05:07:45;12.13;;;10.80;;
51594;SDS011;37677;53.254;6.594;2023-08-06T05:10:11;9.23;;;8.13;;
51594;SDS011;37677;53.254;6.594;2023-08-06T05:12:44;8.60;;;7.90;;
51594;SDS011;37677;53.254;6.594;2023-08-06T05:15:16;8.43;;;7.28;;
51594;SDS011;37677;53.254;6.594;2023-08-06T05:17:55;9.07;;;8.10;;
51594;SDS011;37677;53.254;6.594;2023-08-06T05:20:26;10.40;;;9.32;;
51594;SDS011;37677;53.254;6.594;2023-08-06T05:23:02;9.07;;;7.57;;
51594;SDS011;37677;53.254;6.594;2023-08-06T05:25:51;10.02;;;8.00;;
51594;SDS011;37677;53.254;6.594;2023-08-06T05:28:30;9.02;;;8.13;;
51594;SDS011;37677;53.254;6.594;2023-08-06T05:31:01;8.07;;;7.38;;
51594;SDS011;37677;53.254;6.594;2023-08-06T05:33:28;9.27;;;8.10;;
51594;SDS011;37677;53.254;6.594;2023-08-06T05:36:03;11.48;;;10.07;;
51594;SDS011;37677;53.254;6.594;2023-08-06T05:38:29;9.57;;;8.02;;
51594;SDS011;37677;53.254;6.594;2023-08-06T05:40:58;8.43;;;7.35;;
51594;SDS011;37677;53.254;6.594;2023-08-06T05:43:26;8.63;;;7.82;;
51594;SDS011;37677;53.254;6.594;2023-08-06T05:45:52;8.57;;;7.78;;
51594;SDS011;37677;53.254;6.594;2023-08-06T05:48:18;7.38;;;6.72;;
51594;SDS011;37677;53.254;6.594;2023-08-06T05:50:47;11.73;;;9.93;;
51594;SDS011;37677;53.254;6.594;2023-08-06T05:53:16;13.10;;;8.95;;
51594;SDS011;37677;53.254;6.594;2023-08-06T05:55:44;9.13;;;8.25;;
51594;SDS011;37677;53.254;6.594;2023-08-06T05:58:16;11.70;;;9.13;;
51594;SDS011;37677;53.254;6.594;2023-08-06T06:00:42;11.00;;;7.55;;
51594;SDS011;37677;53.254;6.594;2023-08-06T06:03:13;8.25;;;6.95;;
51594;SDS011;37677;53.254;6.594;2023-08-06T06:05:42;10.32;;;7.97;;
51594;SDS011;37677;53.254;6.594;2023-08-06T06:08:08;9.70;;;7.68;;
51594;SDS011;37677;53.254;6.594;2023-08-06T06:10:34;8.85;;;7.95;;
51594;SDS011;37677;53.254;6.594;2023-08-06T06:13:03;9.70;;;8.07;;
51594;SDS011;37677;53.254;6.594;2023-08-06T06:15:32;7.75;;;6.70;;
51594;SDS011;37677;53.254;6.594;2023-08-06T06:18:04;8.05;;;7.32;;
51594;SDS011;37677;53.254;6.594;2023-08-06T06:20:31;9.18;;;8.13;;
51594;SDS011;37677;53.254;6.594;2023-08-06T06:25:52;8.93;;;7.93;;
51594;SDS011;37677;53.254;6.594;2023-08-06T06:28:18;8.88;;;7.57;;
51594;SDS011;37677;53.254;6.594;2023-08-06T06:30:44;8.05;;;7.22;;
51594;SDS011;37677;53.254;6.594;2023-08-06T06:33:22;8.38;;;7.45;;
51594;SDS011;37677;53.254;6.594;2023-08-06T06:35:48;7.53;;;6.65;;
51594;SDS011;37677;53.254;6.594;2023-08-06T06:38:14;6.80;;;6.20;;
51594;SDS011;37677;53.254;6.594;2023-08-06T06:40:41;9.05;;;5.93;;
51594;SDS011;37677;53.254;6.594;2023-08-06T06:43:36;6.35;;;5.82;;
51594;SDS011;37677;53.254;6.594;2023-08-06T06:46:09;8.60;;;7.10;;
51594;SDS011;37677;53.254;6.594;2023-08-06T06:48:45;7.82;;;6.90;;
51594;SDS011;37677;53.254;6.594;2023-08-06T06:51:11;8.27;;;7.10;;
51594;SDS011;37677;53.254;6.594;2023-08-06T06:53:40;7.72;;;7.03;;
51594;SDS011;37677;53.254;6.594;2023-08-06T06:56:09;8.90;;;7.30;;
51594;SDS011;37677;53.254;6.594;2023-08-06T06:58:35;7.55;;;6.85;;
51594;SDS011;37677;53.254;6.594;2023-08-06T07:01:07;6.05;;;5.55;;
51594;SDS011;37677;53.254;6.594;2023-08-06T07:03:42;7.45;;;6.50;;
51594;SDS011;37677;53.254;6.594;2023-08-06T07:06:08;13.02;;;8.13;;
51594;SDS011;37677;53.254;6.594;2023-08-06T07:08:42;8.50;;;6.97;;
51594;SDS011;37677;53.254;6.594;2023-08-06T07:11:11;6.40;;;5.80;;
51594;SDS011;37677;53.254;6.594;2023-08-06T07:13:37;7.55;;;6.63;;
51594;SDS011;37677;53.254;6.594;2023-08-06T07:16:03;7.40;;;6.45;;
51594;SDS011;37677;53.254;6.594;2023-08-06T07:18:30;6.65;;;6.05;;
51594;SDS011;37677;53.254;6.594;2023-08-06T07:20:56;7.00;;;6.30;;
51594;SDS011;37677;53.254;6.594;2023-08-06T07:23:23;6.55;;;5.80;;
51594;SDS011;37677;53.254;6.594;2023-08-06T07:25:49;6.47;;;5.88;;
51594;SDS011;37677;53.254;6.594;2023-08-06T07:28:15;6.97;;;5.47;;
51594;SDS011;37677;53.254;6.594;2023-08-06T07:30:42;6.00;;;5.50;;
51594;SDS011;37677;53.254;6.594;2023-08-06T07:33:09;7.13;;;5.13;;
51594;SDS011;37677;53.254;6.594;2023-08-06T07:35:35;6.40;;;5.80;;
51594;SDS011;37677;53.254;6.594;2023-08-06T07:38:02;6.85;;;6.00;;
51594;SDS011;37677;53.254;6.594;2023-08-06T07:40:28;7.25;;;5.70;;
51594;SDS011;37677;53.254;6.594;2023-08-06T07:42:54;7.22;;;5.10;;
51594;SDS011;37677;53.254;6.594;2023-08-06T07:45:20;6.20;;;4.85;;
51594;SDS011;37677;53.254;6.594;2023-08-06T07:47:46;5.18;;;4.70;;
51594;SDS011;37677;53.254;6.594;2023-08-06T07:50:13;5.00;;;4.50;;
51594;SDS011;37677;53.254;6.594;2023-08-06T07:52:39;5.40;;;4.90;;
51594;SDS011;37677;53.254;6.594;2023-08-06T07:55:08;6.25;;;4.60;;
51594;SDS011;37677;53.254;6.594;2023-08-06T07:57:34;5.82;;;5.22;;
51594;SDS011;37677;53.254;6.594;2023-08-06T08:00:01;9.60;;;5.00;;
51594;SDS011;37677;53.254;6.594;2023-08-06T08:02:28;5.93;;;5.43;;
51594;SDS011;37677;53.254;6.594;2023-08-06T08:04:55;9.27;;;5.07;;
51594;SDS011;37677;53.254;6.594;2023-08-06T08:07:21;5.38;;;4.97;;
51594;SDS011;37677;53.254;6.594;2023-08-06T08:09:47;6.05;;;5.53;;
51594;SDS011;37677;53.254;6.594;2023-08-06T08:12:13;6.07;;;5.28;;
51594;SDS011;37677;53.254;6.594;2023-08-06T08:14:39;6.63;;;5.68;;
51594;SDS011;37677;53.254;6.594;2023-08-06T08:17:07;6.90;;;5.45;;
51594;SDS011;37677;53.254;6.594;2023-08-06T08:19:33;7.68;;;5.38;;
51594;SDS011;37677;53.254;6.594;2023-08-06T08:21:59;7.90;;;5.45;;
51594;SDS011;37677;53.254;6.594;2023-08-06T08:24:26;5.80;;;5.28;;
51594;SDS011;37677;53.254;6.594;2023-08-06T08:26:52;5.95;;;5.50;;
51594;SDS011;37677;53.254;6.594;2023-08-06T08:29:19;6.35;;;5.25;;
51594;SDS011;37677;53.254;6.594;2023-08-06T08:31:46;5.50;;;5.00;;
51594;SDS011;37677;53.254;6.594;2023-08-06T08:34:14;5.80;;;5.20;;
51594;SDS011;37677;53.254;6.594;2023-08-06T08:36:40;6.03;;;4.57;;
51594;SDS011;37677;53.254;6.594;2023-08-06T08:39:07;6.00;;;5.40;;
51594;SDS011;37677;53.254;6.594;2023-08-06T08:41:33;4.90;;;4.40;;
51594;SDS011;37677;53.254;6.594;2023-08-06T08:43:59;5.45;;;4.70;;
51594;SDS011;37677;53.254;6.594;2023-08-06T08:46:31;6.85;;;4.43;;
51594;SDS011;37677;53.254;6.594;2023-08-06T08:48:58;4.53;;;4.13;;
51594;SDS011;37677;53.254;6.594;2023-08-06T08:51:27;5.10;;;4.10;;
51594;SDS011;37677;53.254;6.594;2023-08-06T08:53:54;4.63;;;3.45;;
51594;SDS011;37677;53.254;6.594;2023-08-06T08:56:22;4.97;;;2.83;;
51594;SDS011;37677;53.254;6.594;2023-08-06T08:58:48;4.15;;;3.53;;
51594;SDS011;37677;53.254;6.594;2023-08-06T09:01:15;5.32;;;3.70;;
51594;SDS011;37677;53.254;6.594;2023-08-06T09:03:42;4.00;;;3.60;;
51594;SDS011;37677;53.254;6.594;2023-08-06T09:06:11;6.82;;;3.70;;
51594;SDS011;37677;53.254;6.594;2023-08-06T09:08:40;4.25;;;3.10;;
51594;SDS011;37677;53.254;6.594;2023-08-06T09:11:12;5.22;;;3.58;;
51594;SDS011;37677;53.254;6.594;2023-08-06T09:13:41;4.28;;;3.08;;
51594;SDS011;37677;53.254;6.594;2023-08-06T09:16:16;6.57;;;2.67;;
51594;SDS011;37677;53.254;6.594;2023-08-06T09:18:54;7.30;;;2.90;;
51594;SDS011;37677;53.254;6.594;2023-08-06T09:21:22;4.75;;;3.10;;
51594;SDS011;37677;53.254;6.594;2023-08-06T09:24:17;4.85;;;2.80;;
51594;SDS011;37677;53.254;6.594;2023-08-06T09:26:46;4.05;;;2.97;;
51594;SDS011;37677;53.254;6.594;2023-08-06T09:29:38;4.65;;;2.55;;
51594;SDS011;37677;53.254;6.594;2023-08-06T09:32:22;4.75;;;2.97;;
51594;SDS011;37677;53.254;6.594;2023-08-06T09:37:54;3.45;;;2.70;;
51594;SDS011;37677;53.254;6.594;2023-08-06T09:40:32;5.32;;;2.55;;
51594;SDS011;37677;53.254;6.594;2023-08-06T09:43:24;5.55;;;2.20;;
51594;SDS011;37677;53.254;6.594;2023-08-06T09:51:54;3.50;;;2.35;;
51594;SDS011;37677;53.254;6.594;2023-08-06T09:54:23;3.50;;;2.10;;
51594;SDS011;37677;53.254;6.594;2023-08-06T09:56:57;3.88;;;2.22;;
51594;SDS011;37677;53.254;6.594;2023-08-06T09:59:23;2.92;;;1.90;;
51594;SDS011;37677;53.254;6.594;2023-08-06T10:02:12;5.10;;;2.30;;
51594;SDS011;37677;53.254;6.594;2023-08-06T10:13:19;3.22;;;2.13;;
51594;SDS011;37677;53.254;6.594;2023-08-06T10:18:51;2.90;;;1.83;;
51594;SDS011;37677;53.254;6.594;2023-08-06T10:21:27;5.13;;;2.45;;
51594;SDS011;37677;53.254;6.594;2023-08-06T10:24:00;2.75;;;2.45;;
51594;SDS011;37677;53.254;6.594;2023-08-06T10:26:31;2.83;;;2.10;;
51594;SDS011;37677;53.254;6.594;2023-08-06T10:29:21;5.68;;;2.30;;
51594;SDS011;37677;53.254;6.594;2023-08-06T10:31:55;5.15;;;2.60;;
51594;SDS011;37677;53.254;6.594;2023-08-06T10:34:57;3.13;;;2.25;;
51594;SDS011;37677;53.254;6.594;2023-08-06T10:37:24;6.10;;;1.88;;
51594;SDS011;37677;53.254;6.594;2023-08-06T10:39:53;2.95;;;2.10;;
51594;SDS011;37677;53.254;6.594;2023-08-06T10:42:26;2.47;;;1.70;;
51594;SDS011;37677;53.254;6.594;2023-08-06T10:45:19;4.10;;;2.15;;
51594;SDS011;37677;53.254;6.594;2023-08-06T10:50:32;2.97;;;2.10;;
51594;SDS011;37677;53.254;6.594;2023-08-06T10:55:54;3.10;;;1.90;;
51594;SDS011;37677;53.254;6.594;2023-08-06T10:58:23;2.60;;;1.90;;
51594;SDS011;37677;53.254;6.594;2023-08-06T11:01:02;2.40;;;1.73;;
51594;SDS011;37677;53.254;6.594;2023-08-06T11:03:46;2.42;;;1.75;;
51594;SDS011;37677;53.254;6.594;2023-08-06T11:09:29;3.40;;;1.88;;
51594;SDS011;37677;53.254;6.594;2023-08-06T11:15:20;5.75;;;1.92;;
51594;SDS011;37677;53.254;6.594;2023-08-06T11:17:57;2.92;;;1.90;;
51594;SDS011;37677;53.254;6.594;2023-08-06T11:20:44;2.97;;;1.90;;
51594;SDS011;37677;53.254;6.594;2023-08-06T11:23:21;3.53;;;2.10;;
51594;SDS011;37677;53.254;6.594;2023-08-06T11:28:39;3.05;;;1.83;;
51594;SDS011;37677;53.254;6.594;2023-08-06T11:31:23;4.35;;;2.03;;
51594;SDS011;37677;53.254;6.594;2023-08-06T11:34:12;3.33;;;1.95;;
51594;SDS011;37677;53.254;6.594;2023-08-06T11:36:40;2.45;;;1.73;;
51594;SDS011;37677;53.254;6.594;2023-08-06T11:39:06;2.50;;;1.85;;
51594;SDS011;37677;53.254;6.594;2023-08-06T11:41:44;2.63;;;2.10;;
51594;SDS011;37677;53.254;6.594;2023-08-06T11:44:19;2.85;;;1.88;;
51594;SDS011;37677;53.254;6.594;2023-08-06T11:46:53;4.65;;;1.88;;
51594;SDS011;37677;53.254;6.594;2023-08-06T11:49:52;3.65;;;2.22;;
51594;SDS011;37677;53.254;6.594;2023-08-06T11:52:38;6.43;;;2.20;;
51594;SDS011;37677;53.254;6.594;2023-08-06T11:55:36;4.93;;;2.10;;
51594;SDS011;37677;53.254;6.594;2023-08-06T11:58:29;2.30;;;1.85;;
51594;SDS011;37677;53.254;6.594;2023-08-06T12:01:01;3.53;;;1.85;;
51594;SDS011;37677;53.254;6.594;2023-08-06T12:03:28;3.40;;;2.10;;
51594;SDS011;37677;53.254;6.594;2023-08-06T12:05:58;4.80;;;2.10;;
51594;SDS011;37677;53.254;6.594;2023-08-06T12:08:46;3.00;;;2.10;;
51594;SDS011;37677;53.254;6.594;2023-08-06T12:11:43;5.43;;;2.30;;
51594;SDS011;37677;53.254;6.594;2023-08-06T12:14:13;3.53;;;1.98;;
51594;SDS011;37677;53.254;6.594;2023-08-06T12:16:47;3.83;;;2.33;;
51594;SDS011;37677;53.254;6.594;2023-08-06T12:19:45;2.50;;;2.17;;
51594;SDS011;37677;53.254;6.594;2023-08-06T12:22:16;2.03;;;1.80;;
51594;SDS011;37677;53.254;6.594;2023-08-06T12:25:15;3.22;;;2.10;;
51594;SDS011;37677;53.254;6.594;2023-08-06T12:28:03;3.58;;;2.22;;
51594;SDS011;37677;53.254;6.594;2023-08-06T12:30:36;5.88;;;1.92;;
51594;SDS011;37677;53.254;6.594;2023-08-06T12:33:33;2.58;;;1.92;;
51594;SDS011;37677;53.254;6.594;2023-08-06T12:36:10;2.50;;;1.75;;
51594;SDS011;37677;53.254;6.594;2023-08-06T12:41:48;2.45;;;1.88;;
51594;SDS011;37677;53.254;6.594;2023-08-06T12:47:36;2.72;;;1.90;;
51594;SDS011;37677;53.254;6.594;2023-08-06T12:50:13;4.72;;;1.98;;
51594;SDS011;37677;53.254;6.594;2023-08-06T12:55:49;2.75;;;1.90;;
51594;SDS011;37677;53.254;6.594;2023-08-06T12:58:17;2.00;;;1.80;;
51594;SDS011;37677;53.254;6.594;2023-08-06T13:00:51;3.58;;;2.00;;
51594;SDS011;37677;53.254;6.594;2023-08-06T13:03:29;2.53;;;1.75;;
51594;SDS011;37677;53.254;6.594;2023-08-06T13:05:55;2.83;;;1.77;;
51594;SDS011;37677;53.254;6.594;2023-08-06T13:11:11;2.80;;;1.80;;
51594;SDS011;37677;53.254;6.594;2023-08-06T13:20:10;3.40;;;2.10;;
51594;SDS011;37677;53.254;6.594;2023-08-06T13:26:04;3.13;;;1.50;;
51594;SDS011;37677;53.254;6.594;2023-08-06T13:28:45;2.10;;;1.67;;
51594;SDS011;37677;53.254;6.594;2023-08-06T13:31:14;2.47;;;1.70;;
51594;SDS011;37677;53.254;6.594;2023-08-06T13:33:57;2.58;;;1.88;;
51594;SDS011;37677;53.254;6.594;2023-08-06T13:36:37;3.70;;;2.00;;
51594;SDS011;37677;53.254;6.594;2023-08-06T13:39:23;5.68;;;1.95;;
51594;SDS011;37677;53.254;6.594;2023-08-06T13:41:54;2.67;;;1.90;;
51594;SDS011;37677;53.254;6.594;2023-08-06T13:44:20;4.57;;;1.95;;
51594;SDS011;37677;53.254;6.594;2023-08-06T13:46:49;3.03;;;1.70;;
51594;SDS011;37677;53.254;6.594;2023-08-06T13:49:29;2.78;;;1.70;;
51594;SDS011;37677;53.254;6.594;2023-08-06T13:51:57;3.25;;;1.65;;
51594;SDS011;37677;53.254;6.594;2023-08-06T13:54:41;2.92;;;2.13;;
51594;SDS011;37677;53.254;6.594;2023-08-06T13:57:16;2.65;;;1.95;;
51594;SDS011;37677;53.254;6.594;2023-08-06T13:59:43;4.22;;;1.88;;
51594;SDS011;37677;53.254;6.594;2023-08-06T14:02:15;2.22;;;1.75;;
51594;SDS011;37677;53.254;6.594;2023-08-06T14:04:42;3.10;;;1.75;;
51594;SDS011;37677;53.254;6.594;2023-08-06T14:07:08;3.55;;;1.70;;
51594;SDS011;37677;53.254;6.594;2023-08-06T14:09:34;3.03;;;1.90;;
51594;SDS011;37677;53.254;6.594;2023-08-06T14:12:19;1.67;;;1.58;;
51594;SDS011;37677;53.254;6.594;2023-08-06T14:14:45;1.80;;;1.70;;
51594;SDS011;37677;53.254;6.594;2023-08-06T14:17:33;2.63;;;2.03;;
51594;SDS011;37677;53.254;6.594;2023-08-06T14:20:14;3.05;;;2.20;;
51594;SDS011;37677;53.254;6.594;2023-08-06T14:22:41;2.25;;;1.80;;
51594;SDS011;37677;53.254;6.594;2023-08-06T14:25:09;2.58;;;1.67;;
51594;SDS011;37677;53.254;6.594;2023-08-06T14:27:44;2.72;;;1.83;;
51594;SDS011;37677;53.254;6.594;2023-08-06T14:30:11;2.17;;;1.58;;
51594;SDS011;37677;53.254;6.594;2023-08-06T14:32:52;3.47;;;1.80;;
51594;SDS011;37677;53.254;6.594;2023-08-06T14:35:39;2.30;;;1.60;;
51594;SDS011;37677;53.254;6.594;2023-08-06T14:38:05;3.20;;;1.70;;
51594;SDS011;37677;53.254;6.594;2023-08-06T14:40:31;2.38;;;1.55;;
51594;SDS011;37677;53.254;6.594;2023-08-06T14:43:00;2.50;;;1.77;;
51594;SDS011;37677;53.254;6.594;2023-08-06T14:45:27;2.10;;;1.58;;
51594;SDS011;37677;53.254;6.594;2023-08-06T14:48:01;2.03;;;1.70;;
51594;SDS011;37677;53.254;6.594;2023-08-06T14:50:30;3.13;;;1.80;;
51594;SDS011;37677;53.254;6.594;2023-08-06T14:52:56;1.88;;;1.75;;
51594;SDS011;37677;53.254;6.594;2023-08-06T14:55:27;2.83;;;1.65;;
51594;SDS011;37677;53.254;6.594;2023-08-06T14:58:00;4.40;;;1.77;;
51594;SDS011;37677;53.254;6.594;2023-08-06T15:03:41;3.42;;;2.15;;
51594;SDS011;37677;53.254;6.594;2023-08-06T15:06:10;2.45;;;1.85;;
51594;SDS011;37677;53.254;6.594;2023-08-06T15:08:53;3.15;;;1.85;;
51594;SDS011;37677;53.254;6.594;2023-08-06T15:11:23;2.83;;;2.00;;
51594;SDS011;37677;53.254;6.594;2023-08-06T15:14:01;3.95;;;1.95;;
51594;SDS011;37677;53.254;6.594;2023-08-06T15:16:33;3.75;;;1.90;;
51594;SDS011;37677;53.254;6.594;2023-08-06T15:19:02;2.17;;;1.73;;
51594;SDS011;37677;53.254;6.594;2023-08-06T15:21:28;5.15;;;1.85;;
51594;SDS011;37677;53.254;6.594;2023-08-06T15:24:15;3.58;;;1.98;;
51594;SDS011;37677;53.254;6.594;2023-08-06T15:26:41;3.50;;;2.03;;
51594;SDS011;37677;53.254;6.594;2023-08-06T15:29:07;2.03;;;1.70;;
51594;SDS011;37677;53.254;6.594;2023-08-06T15:31:37;3.20;;;2.00;;
51594;SDS011;37677;53.254;6.594;2023-08-06T15:34:06;2.95;;;1.50;;
51594;SDS011;37677;53.254;6.594;2023-08-06T15:36:35;2.38;;;1.70;;
51594;SDS011;37677;53.254;6.594;2023-08-06T15:39:01;2.85;;;1.77;;
51594;SDS011;37677;53.254;6.594;2023-08-06T15:41:29;4.80;;;1.80;;
51594;SDS011;37677;53.254;6.594;2023-08-06T15:43:58;4.10;;;1.98;;
51594;SDS011;37677;53.254;6.594;2023-08-06T15:46:24;2.47;;;1.80;;
51594;SDS011;37677;53.254;6.594;2023-08-06T15:48:50;3.08;;;2.17;;
51594;SDS011;37677;53.254;6.594;2023-08-06T15:51:16;4.85;;;2.22;;
51594;SDS011;37677;53.254;6.594;2023-08-06T15:53:50;3.70;;;1.95;;
51594;SDS011;37677;53.254;6.594;2023-08-06T15:56:32;2.38;;;1.67;;
51594;SDS011;37677;53.254;6.594;2023-08-06T16:02:08;3.58;;;1.83;;
51594;SDS011;37677;53.254;6.594;2023-08-06T16:04:37;6.97;;;2.00;;
51594;SDS011;37677;53.254;6.594;2023-08-06T16:07:09;3.50;;;1.88;;
51594;SDS011;37677;53.254;6.594;2023-08-06T16:09:35;5.68;;;1.92;;
51594;SDS011;37677;53.254;6.594;2023-08-06T16:12:16;2.33;;;1.70;;
51594;SDS011;37677;53.254;6.594;2023-08-06T16:14:50;2.78;;;1.50;;
51594;SDS011;37677;53.254;6.594;2023-08-06T16:17:16;4.32;;;1.98;;